»·PEaware :: AAL4489 KEGE-KDEN

AAL4489 :: KEGE-KDEN

FLIGHT INFORMATION

Flight Status: Arrived
Operator:
American Airlines
More flights by this operator :: More flights under this callsign
Pilot: Jamie M. (16133)
Aircraft: DEHAVILLAND DASH 8 400
(DH8D)
More flights by this aircraft type
Origin: KEGE Eagle Co Regl
United States
Destination: KDEN Denver Intl
United States
More flights between these airports :: More routes between these airports
Route: GYPSM5 RLG TOMSN6
File this flight plan on PilotEdge
Remarks:
Altitude:
(Current/Filed)
19,000ft
Speed:
(Current/Filed)
319kts
Departed: 02-May-18 09:14 PM
Arrived: 02-May-18 09:55 PM
Distance/Time
Traveled:
104nm/0:41
Distance/Time
To Go:
Arrived

Flight Plot

Page will automatically refresh every two minutes.


Map Options




Map Legend


Flown Route
Filed Route
Departure Airport
Arrival Airport
Navaid (VOR, NDB)
Fix

Horizontal Profiles

Position Reports

Time Latitude Longitude Heading Altitude Ground
Speed
02-May-18 20:41 39.640771 -106.913821 171 6522ft 0kts
02-May-18 20:42 39.640771 -106.913821 171 6522ft 0kts
02-May-18 20:43 39.640771 -106.913821 171 6522ft 0kts
02-May-18 20:44 39.640771 -106.913821 171 6522ft 0kts
02-May-18 20:45 39.640771 -106.913821 171 6522ft 0kts
02-May-18 20:46 39.640771 -106.913821 171 6522ft 0kts
02-May-18 20:47 39.640771 -106.913821 171 6522ft 0kts
02-May-18 20:48 39.640771 -106.913821 171 6522ft 0kts
02-May-18 20:49 39.640771 -106.913821 171 6522ft 0kts
02-May-18 20:50 39.640771 -106.913821 171 6522ft 0kts
02-May-18 20:51 39.640771 -106.913821 171 6522ft 0kts
02-May-18 20:52 39.640771 -106.913821 171 6522ft 0kts
02-May-18 20:53 39.640771 -106.913821 171 6522ft 0kts
02-May-18 20:54 39.640771 -106.913821 171 6522ft 0kts
02-May-18 20:55 39.640771 -106.913821 171 6522ft 0kts
02-May-18 20:56 39.640771 -106.913821 171 6522ft 0kts
02-May-18 20:57 39.640771 -106.913821 171 6522ft 0kts
02-May-18 20:58 39.640771 -106.913821 171 6522ft 0kts
02-May-18 20:58 39.640771 -106.913821 171 6522ft 0kts
02-May-18 20:59 39.640876 -106.913839 175 6522ft 2kts
02-May-18 21:00 39.641334 -106.913510 261 6522ft 2kts
02-May-18 21:01 39.641339 -106.913462 261 6522ft 0kts
02-May-18 21:02 39.641339 -106.913462 261 6522ft 0kts
02-May-18 21:03 39.641339 -106.913462 261 6522ft 0kts
02-May-18 21:04 39.641339 -106.913462 261 6522ft 0kts
02-May-18 21:05 39.641160 -106.915029 260 6522ft 8kts
02-May-18 21:06 39.641198 -106.915445 304 6522ft 0kts
02-May-18 21:07 39.641289 -106.919225 262 6522ft 23kts
02-May-18 21:08 39.640377 -106.927491 263 6522ft 20kts
02-May-18 21:09 39.640089 -106.931197 301 6522ft 0kts
02-May-18 21:10 39.640089 -106.931197 301 6522ft 0kts
02-May-18 21:11 39.640089 -106.931197 301 6522ft 0kts
02-May-18 21:12 39.641201 -106.930372 81 6522ft 16kts
02-May-18 21:13 39.645477 -106.892954 79 7255ft 138kts
02-May-18 21:14 39.653551 -106.835286 80 9001ft 178kts
02-May-18 21:15 39.662545 -106.766954 79 10856ft 210kts
02-May-18 21:16 39.690055 -106.695888 34 12892ft 232kts
02-May-18 21:17 39.745161 -106.650017 28 14931ft 238kts
02-May-18 21:18 39.802687 -106.604106 29 16691ft 243kts
02-May-18 21:19 39.861364 -106.556809 29 18194ft 248kts
02-May-18 21:20 39.922508 -106.507523 30 18994ft 276kts
02-May-18 21:21 39.991060 -106.451911 30 19102ft 306kts
02-May-18 21:22 40.061171 -106.381537 38 19090ft 326kts
02-May-18 21:23 40.131411 -106.306796 37 19091ft 333kts
02-May-18 21:24 40.203210 -106.229399 37 19106ft 339kts
02-May-18 21:25 40.275665 -106.152731 37 19086ft 346kts
02-May-18 21:26 40.349906 -106.074597 37 19085ft 344kts
02-May-18 21:27 40.424977 -105.995297 37 18205ft 348kts
02-May-18 21:28 40.498767 -105.915605 45 17250ft 343kts
02-May-18 21:29 40.520106 -105.801922 91 17094ft 324kts
02-May-18 21:30 40.518531 -105.686556 91 17070ft 310kts
02-May-18 21:31 40.478502 -105.588037 137 17064ft 325kts
02-May-18 21:32 40.412001 -105.505416 138 17053ft 336kts
02-May-18 21:33 40.343961 -105.421117 138 17047ft 338kts
02-May-18 21:34 40.276488 -105.337517 138 17034ft 337kts
02-May-18 21:35 40.209467 -105.254650 138 17037ft 336kts
02-May-18 21:36 40.142138 -105.171607 139 16577ft 340kts
02-May-18 21:37 40.075373 -105.089509 139 16051ft 321kts
02-May-18 21:38 40.013744 -105.014074 139 16001ft 315kts
02-May-18 21:39 39.955551 -104.942751 140 15029ft 330kts
02-May-18 21:40 39.900020 -104.875246 140 14113ft 326kts
02-May-18 21:41 39.833523 -104.800319 160 13023ft 313kts
02-May-18 21:42 39.750564 -104.787470 178 11934ft 296kts
02-May-18 21:43 39.674545 -104.783399 183 11090ft 253kts
02-May-18 21:44 39.610697 -104.784813 183 10316ft 224kts
02-May-18 21:45 39.549472 -104.786813 167 9315ft 225kts
02-May-18 21:46 39.526758 -104.721916 88 9029ft 215kts
02-May-18 21:47 39.556974 -104.675094 27 9039ft 205kts
02-May-18 21:48 39.609901 -104.664201 0 9029ft 204kts
02-May-18 21:49 39.667728 -104.662937 3 8522ft 221kts
02-May-18 21:50 39.727758 -104.661804 2 7387ft 201kts
02-May-18 21:51 39.774816 -104.660228 359 6515ft 145kts
02-May-18 21:52 39.810807 -104.660634 355 5835ft 118kts
02-May-18 21:53 39.840816 -104.660532 2 5439ft 70kts
02-May-18 21:54 39.849080 -104.661551 329 5438ft 0kts
02-May-18 21:55 39.849964 -104.662218 333 5438ft 15kts
02-May-18 21:56 39.852142 -104.665609 284 5438ft 12kts
02-May-18 21:57 39.852359 -104.670515 270 5438ft 9kts
02-May-18 21:58 39.853422 -104.671070 11 5438ft 0kts
02-May-18 21:59 39.853422 -104.671071 11 5438ft 0kts
02-May-18 22:00 39.853422 -104.671071 11 5438ft 0kts
02-May-18 22:01 39.853422 -104.671071 11 5438ft 0kts
02-May-18 22:02 39.853422 -104.671071 11 5438ft 0kts
02-May-18 22:03 39.853422 -104.671071 11 5438ft 0kts
02-May-18 22:04 39.853422 -104.671071 11 5438ft 0kts
02-May-18 22:05 39.853422 -104.671071 11 5438ft 0kts

Navigation Log

Ident Type
1. KEGE Airport
2. VAILE Fix
3. RLG Navaid
4. RLG Navaid
5. FROGS Fix
6. RIDJE Fix
7. ALLAN Fix
8. TOMSN Fix
9. HYGEN Fix
10. FIPSS Fix
11. SHAFT Fix
12. FQF Navaid
13. KDEN Airport